Time;durP1;ratioP1;P1;durP2;ratioP2;P2;SDS_P1;SDS_P2;PMS_P1;PMS_P2;Temp;Humidity;BMP_temperature;BMP_pressure;BME280_temperature;BME280_humidity;BME280_pressure;Samples;Min_cycle;Max_cycle;Signal;HPM_P1;HPM_P2
2024/01/14 00:01:22;;;;;;;13.35;8.55;;;5.60;90.40;;;;;;5036710;28;20033;-62
2024/01/14 00:03:48;;;;;;;11.75;7.65;;;5.70;90.40;;;;;;5035475;28;20108;-62
2024/01/14 00:06:14;;;;;;;15.75;8.27;;;5.70;90.30;;;;;;5031490;28;20148;-64
2024/01/14 00:08:40;;;;;;;14.05;8.82;;;5.70;90.30;;;;;;5035513;28;20057;-64
2024/01/14 00:11:07;;;;;;;14.30;7.60;;;5.70;90.30;;;;;;5039460;28;20056;-64
2024/01/14 00:13:33;;;;;;;18.00;8.73;;;5.70;90.30;;;;;;5032019;28;20133;-64
2024/01/14 00:15:59;;;;;;;13.05;7.32;;;5.70;90.30;;;;;;5030438;28;20557;-64
2024/01/14 00:18:25;;;;;;;18.00;8.65;;;5.70;90.20;;;;;;5030718;28;20036;-64
2024/01/14 00:20:51;;;;;;;15.43;7.50;;;5.70;90.20;;;;;;5033785;28;20025;-62
2024/01/14 00:23:17;;;;;;;21.33;7.72;;;5.70;90.20;;;;;;5029093;28;20038;-62
2024/01/14 00:25:42;;;;;;;13.68;7.85;;;5.70;90.20;;;;;;5034013;28;20037;-62
2024/01/14 00:28:08;;;;;;;17.92;8.48;;;5.70;90.20;;;;;;5032088;28;20511;-64
2024/01/14 00:30:34;;;;;;;13.55;7.75;;;5.70;90.20;;;;;;5034032;28;20557;-64
2024/01/14 00:33:00;;;;;;;16.55;7.63;;;5.60;90.20;;;;;;5037745;28;20089;-64
2024/01/14 00:35:25;;;;;;;16.13;8.43;;;5.60;90.20;;;;;;5029856;28;20029;-62
2024/01/14 00:37:51;;;;;;;14.93;8.25;;;5.60;90.30;;;;;;5033379;28;20029;-62
2024/01/14 00:40:17;;;;;;;16.30;8.15;;;5.60;90.20;;;;;;5034188;28;20029;-64
2024/01/14 00:42:43;;;;;;;15.57;8.82;;;5.60;90.20;;;;;;5040431;28;20392;-64
2024/01/14 00:45:09;;;;;;;13.00;7.28;;;5.60;90.20;;;;;;5033504;28;20029;-63
2024/01/14 00:47:34;;;;;;;15.05;8.48;;;5.50;90.20;;;;;;5030995;28;20044;-64
2024/01/14 00:50:00;;;;;;;14.63;8.63;;;5.50;90.30;;;;;;5027254;28;20476;-63
2024/01/14 00:52:26;;;;;;;15.15;8.00;;;5.60;90.30;;;;;;5030443;28;20042;-63
2024/01/14 00:54:52;;;;;;;12.63;6.13;;;5.50;90.30;;;;;;5031675;28;20060;-64
2024/01/14 00:57:18;;;;;;;13.82;7.10;;;5.60;90.30;;;;;;5033971;28;20076;-64
2024/01/14 00:59:44;;;;;;;13.85;6.70;;;5.60;90.30;;;;;;5037042;28;20396;-64
2024/01/14 01:02:09;;;;;;;13.98;6.95;;;5.60;90.20;;;;;;5035176;28;20037;-63
2024/01/14 01:04:35;;;;;;;14.50;6.22;;;5.60;90.20;;;;;;5029060;28;20041;-61
2024/01/14 01:07:01;;;;;;;11.25;6.45;;;5.60;90.20;;;;;;5032300;28;20163;-62
2024/01/14 01:09:27;;;;;;;15.75;7.40;;;5.60;90.20;;;;;;5034808;28;20476;-62
2024/01/14 01:11:52;;;;;;;14.57;7.20;;;5.60;90.20;;;;;;5032930;28;20048;-62
2024/01/14 01:14:19;;;;;;;13.38;7.15;;;5.60;90.20;;;;;;5030623;28;20061;-62
2024/01/14 01:16:45;;;;;;;10.45;6.45;;;5.60;90.20;;;;;;5040583;28;20025;-64
2024/01/14 01:19:11;;;;;;;10.48;6.13;;;5.60;90.40;;;;;;5029312;28;20022;-64
2024/01/14 01:21:36;;;;;;;9.77;6.47;;;5.60;90.20;;;;;;5033126;28;20088;-64
2024/01/14 01:24:02;;;;;;;13.40;7.45;;;5.60;90.20;;;;;;5033013;28;20408;-62
2024/01/14 01:26:28;;;;;;;11.95;6.82;;;5.60;90.20;;;;;;5037973;28;20100;-62
2024/01/14 01:28:54;;;;;;;12.23;7.25;;;5.60;90.20;;;;;;5030966;28;20049;-63
2024/01/14 01:31:20;;;;;;;13.65;7.40;;;5.70;90.20;;;;;;5029664;28;20495;-62
2024/01/14 01:33:45;;;;;;;11.68;7.22;;;5.70;90.10;;;;;;5034944;28;20033;-63
2024/01/14 01:36:12;;;;;;;14.10;6.70;;;5.70;90.00;;;;;;5033161;28;20034;-61
2024/01/14 01:38:38;;;;;;;15.25;8.43;;;5.70;90.00;;;;;;5027349;28;20026;-61
2024/01/14 01:41:04;;;;;;;12.63;7.32;;;5.70;90.00;;;;;;5037216;28;20079;-63
2024/01/14 01:43:30;;;;;;;12.23;6.47;;;5.70;90.10;;;;;;5033193;28;20037;-63
2024/01/14 01:45:56;;;;;;;19.95;8.52;;;5.70;90.10;;;;;;5032829;28;20037;-61
2024/01/14 01:48:23;;;;;;;18.08;8.55;;;5.70;90.00;;;;;;5028847;28;20503;-63
2024/01/14 01:50:51;;;;;;;11.10;5.95;;;5.70;90.10;;;;;;5031490;28;20044;-63
2024/01/14 01:53:17;;;;;;;10.55;7.05;;;5.70;90.10;;;;;;5037679;28;20063;-61
2024/01/14 01:55:43;;;;;;;16.08;6.75;;;5.70;90.10;;;;;;5031357;28;20025;-61
2024/01/14 01:58:09;;;;;;;10.60;6.75;;;5.70;90.10;;;;;;5033805;28;20206;-61
2024/01/14 02:00:38;;;;;;;17.27;8.07;;;5.60;90.10;;;;;;5036486;28;20099;-61
2024/01/14 02:03:05;;;;;;;14.90;7.63;;;5.60;90.20;;;;;;5029827;28;20080;-61
2024/01/14 02:05:34;;;;;;;14.27;7.07;;;5.60;90.20;;;;;;5035376;28;20025;-61
2024/01/14 02:08:00;;;;;;;15.10;7.13;;;5.60;90.20;;;;;;5040541;28;20104;-61
2024/01/14 02:10:25;;;;;;;12.30;6.85;;;5.60;90.20;;;;;;5037330;28;20112;-63
2024/01/14 02:12:51;;;;;;;13.82;7.10;;;5.60;90.20;;;;;;5033630;28;20049;-61
2024/01/14 02:15:17;;;;;;;12.10;6.78;;;5.60;90.20;;;;;;5030309;28;20064;-61
2024/01/14 02:17:42;;;;;;;14.07;8.27;;;5.60;90.20;;;;;;5070450;28;20121;-63
2024/01/14 02:20:09;;;;;;;16.73;7.70;;;5.60;90.20;;;;;;5033751;28;20040;-63
2024/01/14 02:22:39;;;;;;;14.02;7.70;;;5.70;90.20;;;;;;5035295;28;20052;-63
2024/01/14 02:25:05;;;;;;;16.63;7.88;;;5.70;90.20;;;;;;5035571;28;20033;-63
2024/01/14 02:27:32;;;;;;;14.32;7.50;;;5.60;90.10;;;;;;5068377;28;20029;-63
2024/01/14 02:29:59;;;;;;;16.33;8.07;;;5.60;90.20;;;;;;5035105;28;20029;-63
2024/01/14 02:32:25;;;;;;;18.48;9.65;;;5.60;90.20;;;;;;5034720;28;20041;-61
2024/01/14 02:34:51;;;;;;;20.77;9.20;;;5.60;90.20;;;;;;5035013;28;20388;-62
2024/01/14 02:37:17;;;;;;;17.98;9.77;;;5.60;90.20;;;;;;5026408;28;20026;-63
2024/01/14 02:39:43;;;;;;;17.67;9.13;;;5.60;90.10;;;;;;5028676;28;20056;-63
2024/01/14 02:42:09;;;;;;;17.33;9.73;;;5.70;90.20;;;;;;5028220;28;20036;-61
2024/01/14 02:44:35;;;;;;;21.88;12.15;;;5.60;90.20;;;;;;5028340;28;20053;-61
2024/01/14 02:47:00;;;;;;;16.33;9.85;;;5.60;90.20;;;;;;5023630;28;20026;-62
2024/01/14 02:49:26;;;;;;;25.00;9.82;;;5.60;90.20;;;;;;5041246;28;20044;-64
2024/01/14 02:51:52;;;;;;;23.95;10.93;;;5.60;90.20;;;;;;5063370;28;20107;-64
2024/01/14 02:54:18;;;;;;;15.93;9.95;;;5.60;90.20;;;;;;5033372;28;20029;-64
2024/01/14 02:56:44;;;;;;;21.58;10.88;;;5.60;90.20;;;;;;5064863;28;20562;-62
2024/01/14 02:59:09;;;;;;;19.05;10.25;;;5.60;90.20;;;;;;5033950;28;20025;-62
2024/01/14 03:01:48;;;;;;;27.55;13.02;;;5.60;90.10;;;;;;5042856;28;20032;-62
2024/01/14 03:04:14;;;;;;;23.73;12.32;;;5.60;90.10;;;;;;5040092;28;20022;-62
2024/01/14 03:06:40;;;;;;;26.02;11.70;;;5.60;90.20;;;;;;5035476;28;20030;-62
2024/01/14 03:09:06;;;;;;;28.83;11.30;;;5.50;90.10;;;;;;5037262;28;20096;-62
2024/01/14 03:11:33;;;;;;;25.23;12.73;;;5.50;90.10;;;;;;5033519;28;20033;-61
2024/01/14 03:13:59;;;;;;;24.50;11.48;;;5.50;90.20;;;;;;5039755;28;20128;-61
2024/01/14 03:16:25;;;;;;;22.80;11.35;;;5.50;90.20;;;;;;5038375;28;20449;-62
2024/01/14 03:18:50;;;;;;;18.35;10.02;;;5.50;90.20;;;;;;5034430;28;20483;-63
2024/01/14 03:21:19;;;;;;;24.10;13.57;;;5.50;90.10;;;;;;5068890;28;20030;-63
2024/01/14 03:23:45;;;;;;;17.88;9.70;;;5.50;90.10;;;;;;5037880;28;20072;-63
2024/01/14 03:26:11;;;;;;;19.52;10.77;;;5.40;90.10;;;;;;5043328;28;20472;-63
2024/01/14 03:28:39;;;;;;;19.70;10.75;;;5.40;90.20;;;;;;5032626;28;20048;-63
2024/01/14 03:31:05;;;;;;;24.30;12.27;;;5.50;90.20;;;;;;5031100;28;20033;-63
2024/01/14 03:33:31;;;;;;;20.23;9.88;;;5.50;90.10;;;;;;5033238;28;20056;-62
2024/01/14 03:36:00;;;;;;;27.33;11.90;;;5.50;90.10;;;;;;5042292;28;20439;-61
2024/01/14 03:38:26;;;;;;;22.77;11.90;;;5.50;90.10;;;;;;5036478;28;20034;-61
2024/01/14 03:40:52;;;;;;;22.20;12.00;;;5.50;90.10;;;;;;5033380;28;20078;-61
2024/01/14 03:43:17;;;;;;;25.02;13.38;;;5.50;90.10;;;;;;5037785;28;20041;-61
2024/01/14 03:45:43;;;;;;;31.48;13.00;;;5.40;90.00;;;;;;5072250;28;20035;-61
2024/01/14 03:48:09;;;;;;;20.30;11.25;;;5.40;90.10;;;;;;5037475;28;20035;-61
2024/01/14 03:50:35;;;;;;;23.90;11.65;;;5.40;90.10;;;;;;5036310;28;20045;-63
2024/01/14 03:53:00;;;;;;;24.20;12.88;;;5.40;90.10;;;;;;5038193;28;20037;-63
2024/01/14 03:55:26;;;;;;;25.80;14.32;;;5.40;90.10;;;;;;5037906;28;20087;-61
2024/01/14 03:57:52;;;;;;;26.48;13.23;;;5.40;90.00;;;;;;5037862;28;20061;-62
2024/01/14 04:00:17;;;;;;;21.92;13.30;;;5.40;90.00;;;;;;5041760;28;20033;-62
2024/01/14 04:02:43;;;;;;;26.17;14.50;;;5.40;90.00;;;;;;5030773;28;20064;-62
2024/01/14 04:05:09;;;;;;;22.80;15.13;;;5.30;90.10;;;;;;5038416;28;20025;-64
2024/01/14 04:07:35;;;;;;;25.60;13.70;;;5.20;90.10;;;;;;5036151;28;20127;-64
2024/01/14 04:10:00;;;;;;;28.42;13.32;;;5.20;90.20;;;;;;5040778;28;20685;-64
2024/01/14 04:12:27;;;;;;;23.27;12.20;;;5.10;90.20;;;;;;5030908;28;20515;-63
2024/01/14 04:14:53;;;;;;;25.58;13.02;;;5.10;90.20;;;;;;5064238;28;20493;-62
2024/01/14 04:17:19;;;;;;;18.38;10.90;;;5.10;90.20;;;;;;5037107;28;20026;-62
2024/01/14 04:19:45;;;;;;;29.27;14.40;;;5.10;90.30;;;;;;5030600;28;20413;-62
2024/01/14 04:22:10;;;;;;;26.63;13.23;;;5.10;90.20;;;;;;5033383;28;20080;-63
2024/01/14 04:24:36;;;;;;;23.85;13.30;;;5.10;90.20;;;;;;5034287;28;20056;-64
2024/01/14 04:27:02;;;;;;;27.02;12.85;;;5.10;90.20;;;;;;5032078;28;20033;-64
2024/01/14 04:29:27;;;;;;;20.75;11.63;;;5.10;90.20;;;;;;5042239;28;20086;-62
2024/01/14 04:31:53;;;;;;;25.00;13.27;;;5.10;90.20;;;;;;5035631;28;20044;-63
2024/01/14 04:34:19;;;;;;;34.72;15.00;;;5.10;90.20;;;;;;5039670;28;20120;-62
2024/01/14 04:36:44;;;;;;;25.45;12.95;;;5.10;90.20;;;;;;5029375;28;20026;-62
2024/01/14 04:39:10;;;;;;;25.90;13.95;;;5.10;90.20;;;;;;5038708;28;20036;-63
2024/01/14 04:41:37;;;;;;;31.15;15.77;;;5.10;90.50;;;;;;5034209;28;20493;-63
2024/01/14 04:44:03;;;;;;;24.52;13.57;;;5.10;90.10;;;;;;5044034;28;20439;-62
2024/01/14 04:46:28;;;;;;;28.65;15.52;;;5.10;90.10;;;;;;5037115;28;20030;-63
2024/01/14 04:48:54;;;;;;;28.67;11.55;;;5.10;90.10;;;;;;5041691;28;20136;-63
2024/01/14 04:51:20;;;;;;;26.77;13.65;;;5.10;90.20;;;;;;5069764;28;20044;-62
2024/01/14 04:53:46;;;;;;;33.85;15.13;;;5.10;90.10;;;;;;5029170;28;20104;-64
2024/01/14 04:56:11;;;;;;;26.30;12.93;;;5.10;90.10;;;;;;5012481;28;20033;-63
2024/01/14 04:58:38;;;;;;;26.48;14.18;;;5.10;90.10;;;;;;5033693;28;20036;-64
2024/01/14 05:01:04;;;;;;;30.15;13.65;;;5.20;90.10;;;;;;5031406;28;20112;-64
2024/01/14 05:03:29;;;;;;;24.92;13.93;;;5.20;90.10;;;;;;5030929;28;20109;-63
2024/01/14 05:05:55;;;;;;;29.00;14.57;;;5.20;90.00;;;;;;5036598;28;20590;-64
2024/01/14 05:08:21;;;;;;;27.13;14.23;;;5.10;90.00;;;;;;5069239;28;20029;-64
2024/01/14 05:10:47;;;;;;;36.05;14.77;;;5.10;90.00;;;;;;5034811;28;20032;-64
2024/01/14 05:13:12;;;;;;;29.88;14.65;;;5.00;90.00;;;;;;5032854;28;20033;-62
2024/01/14 05:15:38;;;;;;;23.50;14.23;;;4.90;90.10;;;;;;5029546;28;20038;-63
2024/01/14 05:18:04;;;;;;;27.10;15.20;;;4.90;90.10;;;;;;5031197;28;20033;-63
2024/01/14 05:20:30;;;;;;;33.42;14.90;;;4.90;90.20;;;;;;5035790;28;20392;-62
2024/01/14 05:22:55;;;;;;;31.27;15.00;;;4.90;90.20;;;;;;5030593;28;20072;-62
2024/01/14 05:25:21;;;;;;;25.77;14.20;;;4.90;90.20;;;;;;5030715;28;20444;-62
2024/01/14 05:27:47;;;;;;;23.17;12.27;;;4.90;90.20;;;;;;5036234;28;20036;-63
2024/01/14 05:30:13;;;;;;;29.65;14.43;;;4.90;90.20;;;;;;5030589;28;20059;-62
2024/01/14 05:32:39;;;;;;;28.92;14.13;;;4.90;90.20;;;;;;5039296;28;20033;-64
2024/01/14 05:35:05;;;;;;;26.90;13.98;;;4.90;90.10;;;;;;5033652;28;20033;-64
2024/01/14 05:37:33;;;;;;;29.35;13.02;;;4.90;90.20;;;;;;5037105;28;20407;-64
2024/01/14 05:39:59;;;;;;;22.60;11.50;;;4.90;90.20;;;;;;5035837;28;20037;-64
2024/01/14 05:42:25;;;;;;;28.13;13.00;;;4.90;90.20;;;;;;5031074;28;20078;-63
2024/01/14 05:44:51;;;;;;;29.77;14.55;;;4.90;90.10;;;;;;5032228;28;20033;-63
2024/01/14 05:47:17;;;;;;;23.95;13.02;;;4.90;90.10;;;;;;5036019;28;20059;-62
2024/01/14 05:49:42;;;;;;;25.90;12.98;;;4.90;90.10;;;;;;5036989;28;20033;-62
2024/01/14 05:52:08;;;;;;;28.52;14.63;;;4.90;90.10;;;;;;5035202;28;20064;-63
2024/01/14 05:54:33;;;;;;;23.45;14.07;;;4.90;90.10;;;;;;5033459;28;20030;-62
2024/01/14 05:57:00;;;;;;;28.70;12.55;;;4.80;90.10;;;;;;5030750;28;20045;-63
2024/01/14 05:59:25;;;;;;;32.33;13.95;;;4.80;90.10;;;;;;5025769;28;20116;-62
2024/01/14 06:01:51;;;;;;;26.58;12.60;;;4.80;90.10;;;;;;5032950;28;20108;-62
2024/01/14 06:04:16;;;;;;;23.92;12.63;;;4.80;90.10;;;;;;5034159;28;20338;-62
2024/01/14 06:06:42;;;;;;;26.40;12.02;;;4.80;90.10;;;;;;5032937;28;20047;-62
2024/01/14 06:09:08;;;;;;;21.27;11.98;;;4.80;90.10;;;;;;5037233;28;20036;-63
2024/01/14 06:11:33;;;;;;;34.20;12.15;;;4.80;90.00;;;;;;5036713;28;20033;-63
2024/01/14 06:13:59;;;;;;;26.08;13.35;;;4.70;90.00;;;;;;5033563;28;20049;-62
2024/01/14 06:16:25;;;;;;;24.90;13.07;;;4.70;90.00;;;;;;5033122;28;20472;-63
2024/01/14 06:18:51;;;;;;;27.42;12.07;;;4.60;90.10;;;;;;5033553;28;20242;-64
2024/01/14 06:21:17;;;;;;;21.67;12.00;;;4.60;90.20;;;;;;5031575;28;20033;-64
2024/01/14 06:23:42;;;;;;;22.25;11.57;;;4.70;90.20;;;;;;5035940;28;20030;-64
2024/01/14 06:26:14;;;;;;;29.50;11.57;;;4.70;90.10;;;;;;5044429;28;20032;-62
2024/01/14 06:28:40;;;;;;;21.98;10.18;;;4.70;90.00;;;;;;5037139;28;20520;-62
2024/01/14 06:31:07;;;;;;;21.02;11.02;;;4.70;90.00;;;;;;5034792;28;20103;-62
2024/01/14 06:33:33;;;;;;;25.35;11.95;;;4.60;90.00;;;;;;5034272;28;20532;-64
2024/01/14 06:35:59;;;;;;;23.02;11.73;;;4.60;90.00;;;;;;5035238;28;20104;-63
2024/01/14 06:38:24;;;;;;;17.98;11.98;;;4.60;90.00;;;;;;5035282;28;20030;-63
2024/01/14 06:40:50;;;;;;;25.00;12.65;;;4.60;90.10;;;;;;5047147;28;20029;-63
2024/01/14 06:43:16;;;;;;;24.55;12.10;;;4.60;90.00;;;;;;5038966;28;20038;-64
2024/01/14 06:45:42;;;;;;;25.38;13.30;;;4.50;90.00;;;;;;5038505;28;20033;-64
2024/01/14 06:48:07;;;;;;;24.83;12.63;;;4.50;90.00;;;;;;5033845;28;20420;-63
2024/01/14 06:50:33;;;;;;;22.95;12.38;;;4.50;90.00;;;;;;5044130;28;20484;-62
2024/01/14 06:52:59;;;;;;;29.30;13.23;;;4.50;90.00;;;;;;5037859;28;20036;-62
2024/01/14 06:55:24;;;;;;;22.80;11.98;;;4.50;90.00;;;;;;5043839;28;20400;-63
2024/01/14 06:57:50;;;;;;;24.40;14.13;;;4.50;90.00;;;;;;5040704;28;20025;-63
2024/01/14 07:00:16;;;;;;;24.42;12.50;;;4.50;90.00;;;;;;5037573;28;20453;-64
2024/01/14 07:02:41;;;;;;;21.50;11.10;;;4.50;90.00;;;;;;5032918;28;20426;-64
2024/01/14 07:05:09;;;;;;;24.25;11.13;;;4.50;90.00;;;;;;5037729;28;20037;-63
2024/01/14 07:07:35;;;;;;;17.77;10.13;;;4.50;90.00;;;;;;5064553;28;20037;-64
2024/01/14 07:10:01;;;;;;;27.15;12.40;;;4.50;90.00;;;;;;5068424;28;20483;-63
2024/01/14 07:12:27;;;;;;;24.23;11.10;;;4.50;89.90;;;;;;5037081;28;20029;-64
2024/01/14 07:14:52;;;;;;;26.70;11.93;;;4.50;89.80;;;;;;5020921;28;20057;-64
2024/01/14 07:17:19;;;;;;;22.55;10.93;;;4.50;89.80;;;;;;5040032;28;20055;-63
2024/01/14 07:19:44;;;;;;;23.10;11.77;;;4.50;89.80;;;;;;5041129;28;20044;-64
2024/01/14 07:22:10;;;;;;;29.20;12.55;;;4.50;89.90;;;;;;5030182;28;20038;-63
2024/01/14 07:24:36;;;;;;;25.10;11.02;;;4.50;89.90;;;;;;5033209;28;20041;-63
2024/01/14 07:27:02;;;;;;;23.58;12.23;;;4.50;89.90;;;;;;5034353;28;20037;-63
2024/01/14 07:29:28;;;;;;;22.73;11.88;;;4.50;89.90;;;;;;5037005;28;20126;-64
2024/01/14 07:31:54;;;;;;;29.33;12.98;;;4.50;89.90;;;;;;5030736;28;20148;-62
2024/01/14 07:34:20;;;;;;;25.52;12.77;;;4.50;89.80;;;;;;5031298;28;20025;-63
2024/01/14 07:36:46;;;;;;;27.65;14.30;;;4.60;89.90;;;;;;5038102;28;20032;-64
2024/01/14 07:39:12;;;;;;;29.80;13.40;;;4.50;89.60;;;;;;5027009;28;20066;-62
2024/01/14 07:41:39;;;;;;;24.67;13.52;;;4.50;89.50;;;;;;5035907;28;20415;-63
2024/01/14 07:44:05;;;;;;;34.40;14.25;;;4.50;89.70;;;;;;5040341;28;20045;-62
2024/01/14 07:46:31;;;;;;;22.60;14.75;;;4.50;89.70;;;;;;5032107;28;20454;-62
2024/01/14 07:48:57;;;;;;;30.98;13.65;;;4.40;89.80;;;;;;5034001;28;20129;-62
2024/01/14 07:51:23;;;;;;;26.73;14.35;;;4.50;89.90;;;;;;5040900;28;20029;-62
2024/01/14 07:53:49;;;;;;;21.70;12.20;;;4.50;89.90;;;;;;5039892;28;20033;-62
2024/01/14 07:56:15;;;;;;;25.70;12.52;;;4.50;89.90;;;;;;5038387;28;20025;-62
2024/01/14 07:58:40;;;;;;;24.48;12.63;;;4.50;89.90;;;;;;5034682;28;20060;-62
2024/01/14 08:01:06;;;;;;;27.42;14.20;;;4.50;89.80;;;;;;5036482;28;20064;-62
2024/01/14 08:03:32;;;;;;;26.77;13.48;;;4.50;89.90;;;;;;5039218;28;20037;-62
2024/01/14 08:05:58;;;;;;;27.63;13.77;;;4.60;89.90;;;;;;5039234;28;20057;-62
2024/01/14 08:08:24;;;;;;;29.38;13.60;;;4.60;89.80;;;;;;5035560;28;20025;-62
2024/01/14 08:10:50;;;;;;;29.20;14.88;;;4.60;89.70;;;;;;5038931;28;20029;-62
2024/01/14 08:13:15;;;;;;;24.85;14.43;;;4.50;89.60;;;;;;5035077;28;20652;-62
2024/01/14 08:15:41;;;;;;;41.03;14.82;;;4.50;89.80;;;;;;5033844;28;20025;-62
2024/01/14 08:18:08;;;;;;;25.88;14.05;;;4.50;89.70;;;;;;5035412;28;20071;-62
2024/01/14 08:20:34;;;;;;;34.88;14.98;;;4.50;89.80;;;;;;5036958;28;20104;-62
2024/01/14 08:22:59;;;;;;;29.67;15.68;;;4.40;89.90;;;;;;5035075;28;20123;-62
2024/01/14 08:25:25;;;;;;;28.67;15.55;;;4.40;89.90;;;;;;5035818;28;20033;-63
2024/01/14 08:27:52;;;;;;;29.80;14.48;;;4.40;89.90;;;;;;5037206;28;20108;-64
2024/01/14 08:30:18;;;;;;;28.20;13.73;;;4.40;90.00;;;;;;5032363;28;20033;-64
2024/01/14 08:32:44;;;;;;;27.65;16.35;;;4.40;90.00;;;;;;5031501;28;20033;-62
2024/01/14 08:35:12;;;;;;;25.95;15.40;;;4.50;90.00;;;;;;5070870;28;20464;-62
2024/01/14 08:37:38;;;;;;;31.23;15.10;;;4.40;90.00;;;;;;5034464;28;20496;-62
2024/01/14 08:40:05;;;;;;;26.67;15.68;;;4.50;90.00;;;;;;5030571;28;20017;-62
2024/01/14 08:42:31;;;;;;;29.05;14.35;;;4.50;90.00;;;;;;5042462;28;20061;-62
2024/01/14 08:44:57;;;;;;;34.08;14.13;;;4.50;89.90;;;;;;5037710;28;20107;-62
2024/01/14 08:47:22;;;;;;;33.22;12.77;;;4.50;90.00;;;;;;5037696;28;20033;-63
2024/01/14 08:49:48;;;;;;;29.92;14.30;;;4.50;90.00;;;;;;5038278;28;20033;-62
2024/01/14 08:52:14;;;;;;;35.00;15.57;;;4.50;89.90;;;;;;5035113;28;20520;-62
2024/01/14 08:54:39;;;;;;;25.48;13.90;;;4.40;89.90;;;;;;5034403;28;20487;-62
2024/01/14 08:57:07;;;;;;;22.25;12.73;;;4.50;90.00;;;;;;5030339;28;20048;-63
2024/01/14 08:59:33;;;;;;;26.02;14.50;;;4.50;90.00;;;;;;5030718;28;20038;-63
2024/01/14 09:01:58;;;;;;;35.30;14.70;;;4.50;89.90;;;;;;5032461;28;20052;-63
2024/01/14 09:04:24;;;;;;;34.45;15.88;;;4.50;90.00;;;;;;5065073;28;20025;-63
2024/01/14 09:06:50;;;;;;;28.50;15.75;;;4.50;90.00;;;;;;5028797;28;20041;-65
2024/01/14 09:09:16;;;;;;;26.25;15.07;;;4.50;89.90;;;;;;5031813;28;20037;-66
2024/01/14 09:11:45;;;;;;;30.55;14.73;;;4.50;89.80;;;;;;5006777;28;20033;-65
2024/01/14 09:14:10;;;;;;;26.05;14.07;;;4.50;89.80;;;;;;5021561;28;20056;-64
2024/01/14 09:16:36;;;;;;;22.25;12.20;;;4.50;89.80;;;;;;5031211;28;20024;-63
2024/01/14 09:19:02;;;;;;;34.10;15.35;;;4.50;89.90;;;;;;5027224;28;20059;-63
2024/01/14 09:21:28;;;;;;;29.30;14.88;;;4.50;89.90;;;;;;5036023;28;20032;-64
2024/01/14 09:23:54;;;;;;;25.75;14.20;;;4.50;89.90;;;;;;5028420;28;20099;-64
2024/01/14 09:26:19;;;;;;;31.48;14.48;;;4.40;90.00;;;;;;5029850;28;20026;-64
2024/01/14 09:28:45;;;;;;;36.05;14.98;;;4.40;90.00;;;;;;5028598;28;20535;-65
2024/01/14 09:31:12;;;;;;;30.10;14.23;;;4.50;90.00;;;;;;5029836;28;20033;-65
2024/01/14 09:33:38;;;;;;;26.42;14.48;;;4.50;90.00;;;;;;5023201;28;20041;-65
2024/01/14 09:36:08;;;;;;;28.92;14.13;;;4.50;90.00;;;;;;5034031;28;20078;-65
2024/01/14 09:38:34;;;;;;;35.70;15.85;;;4.50;90.00;;;;;;5033455;28;20045;-65
2024/01/14 09:41:10;;;;;;;26.35;14.25;;;4.50;90.00;;;;;;5027952;28;20025;-65
2024/01/14 09:43:40;;;;;;;27.33;12.68;;;4.40;90.10;;;;;;5023483;28;20451;-65
2024/01/14 09:46:06;;;;;;;26.77;14.48;;;4.40;90.10;;;;;;5033344;28;20022;-65
2024/01/14 09:48:33;;;;;;;27.80;12.38;;;4.40;90.10;;;;;;5031721;28;20044;-65
2024/01/14 09:51:03;;;;;;;26.52;14.52;;;4.50;90.10;;;;;;5034716;28;20021;-65
2024/01/14 09:53:29;;;;;;;23.23;12.68;;;4.50;90.10;;;;;;5022572;28;20481;-65
2024/01/14 09:55:56;;;;;;;32.42;13.80;;;4.50;90.00;;;;;;5030767;28;20075;-65
2024/01/14 09:58:22;;;;;;;26.25;13.85;;;4.50;90.00;;;;;;5026783;28;20029;-65
2024/01/14 10:00:49;;;;;;;23.52;13.07;;;4.50;90.00;;;;;;5030701;28;20029;-63
2024/01/14 10:03:15;;;;;;;34.38;15.38;;;4.50;90.00;;;;;;5030253;28;20116;-63
2024/01/14 10:05:43;;;;;;;22.13;12.88;;;4.50;90.10;;;;;;5033479;28;20037;-64
2024/01/14 10:08:08;;;;;;;29.00;13.55;;;4.50;90.00;;;;;;5029144;28;20029;-65
2024/01/14 10:10:34;;;;;;;28.88;13.82;;;4.60;90.00;;;;;;5032459;28;20041;-66
2024/01/14 10:13:02;;;;;;;21.63;12.38;;;4.60;90.10;;;;;;5028839;28;20092;-63
2024/01/14 10:15:30;;;;;;;27.90;13.00;;;4.70;90.00;;;;;;5033952;28;20037;-65
2024/01/14 10:17:56;;;;;;;23.20;13.55;;;4.70;90.00;;;;;;5030768;28;20033;-63
2024/01/14 10:20:21;;;;;;;28.00;13.27;;;4.70;89.80;;;;;;5034149;28;20032;-63
2024/01/14 10:22:47;;;;;;;27.48;14.27;;;4.70;89.90;;;;;;5069215;28;20033;-64
2024/01/14 10:25:13;;;;;;;21.73;11.35;;;4.70;89.80;;;;;;5037370;28;20033;-64
2024/01/14 10:27:39;;;;;;;32.03;13.88;;;4.80;89.90;;;;;;5066008;28;20041;-63
2024/01/14 10:30:11;;;;;;;30.17;14.48;;;4.80;89.70;;;;;;5034638;28;20319;-64
2024/01/14 10:32:37;;;;;;;23.38;11.00;;;4.80;89.70;;;;;;5036281;28;20536;-64
2024/01/14 10:35:12;;;;;;;24.83;13.70;;;4.80;89.80;;;;;;5037834;28;20040;-65
2024/01/14 10:37:39;;;;;;;35.58;13.73;;;4.80;89.70;;;;;;5036145;28;20029;-63
2024/01/14 10:40:08;;;;;;;25.70;14.77;;;4.80;89.80;;;;;;5034953;28;20475;-63
2024/01/14 10:42:36;;;;;;;19.75;12.70;;;4.80;89.70;;;;;;5035310;28;20045;-63
2024/01/14 10:45:04;;;;;;;27.85;12.63;;;4.80;89.70;;;;;;5029617;28;20029;-63
2024/01/14 10:47:32;;;;;;;27.80;12.65;;;4.80;89.80;;;;;;5033282;28;20041;-62
2024/01/14 10:50:00;;;;;;;21.30;13.43;;;4.80;89.60;;;;;;5057530;28;20444;-62
2024/01/14 10:52:28;;;;;;;27.02;13.73;;;4.80;89.60;;;;;;5027661;28;20035;-62
2024/01/14 10:54:56;;;;;;;30.35;14.63;;;4.80;89.60;;;;;;5031244;28;20033;-62
2024/01/14 10:57:35;;;;;;;29.25;16.02;;;4.80;89.50;;;;;;5022307;28;20022;-62
2024/01/14 11:00:10;;;;;;;28.40;13.75;;;4.80;89.60;;;;;;5027124;28;20481;-62
2024/01/14 11:02:37;;;;;;;27.85;14.20;;;4.70;89.60;;;;;;5023479;28;20064;-62
2024/01/14 11:05:05;;;;;;;28.95;14.70;;;4.70;89.70;;;;;;5027141;28;20042;-62
2024/01/14 11:07:35;;;;;;;22.17;12.90;;;4.70;89.80;;;;;;5035786;28;20053;-62
2024/01/14 11:10:05;;;;;;;30.33;13.20;;;4.70;89.80;;;;;;5033770;28;20075;-62
2024/01/14 11:12:44;;;;;;;21.73;12.02;;;4.70;89.80;;;;;;5034475;28;20550;-62
2024/01/14 11:15:35;;;;;;;26.88;14.40;;;4.70;89.90;;;;;;5035118;28;20047;-62
2024/01/14 11:18:09;;;;;;;20.27;11.47;;;4.70;89.90;;;;;;5027270;28;20096;-64
2024/01/14 11:20:38;;;;;;;29.50;12.25;;;4.70;90.00;;;;;;5035667;28;20276;-62
2024/01/14 11:23:05;;;;;;;23.83;14.32;;;4.80;90.00;;;;;;5041294;28;20047;-62
2024/01/14 11:25:35;;;;;;;27.98;14.45;;;4.80;89.80;;;;;;5039441;28;20025;-62
2024/01/14 11:28:02;;;;;;;31.05;14.70;;;4.80;89.80;;;;;;5033651;28;20248;-62
2024/01/14 11:30:47;;;;;;;32.15;15.30;;;4.70;90.00;;;;;;5036232;28;20472;-62
2024/01/14 11:33:40;;;;;;;30.48;14.93;;;4.80;90.00;;;;;;5028291;28;20022;-62
2024/01/14 11:36:07;;;;;;;22.00;13.57;;;4.80;90.00;;;;;;5034778;28;20396;-62
2024/01/14 11:38:45;;;;;;;28.67;13.45;;;4.70;90.10;;;;;;5031088;28;20017;-62
2024/01/14 11:41:31;;;;;;;26.27;14.50;;;4.80;90.10;;;;;;5037804;28;20495;-62
2024/01/14 11:44:23;;;;;;;27.33;13.30;;;4.70;90.10;;;;;;5028205;28;20079;-62
2024/01/14 11:46:50;;;;;;;30.42;12.82;;;4.70;90.10;;;;;;5033399;28;20037;-63
2024/01/14 11:49:22;;;;;;;23.15;13.18;;;4.70;90.20;;;;;;5032153;28;20420;-61
2024/01/14 11:52:02;;;;;;;25.20;14.18;;;4.70;90.20;;;;;;5033597;28;20041;-61
2024/01/14 11:54:31;;;;;;;22.48;10.82;;;4.70;90.20;;;;;;5031627;28;20505;-61
2024/01/14 11:56:58;;;;;;;24.05;13.13;;;4.70;90.20;;;;;;5038436;28;20029;-62
2024/01/14 11:59:24;;;;;;;20.45;11.63;;;4.70;90.20;;;;;;5033719;28;20060;-62
2024/01/14 12:01:49;;;;;;;22.17;11.75;;;4.80;90.20;;;;;;5033776;28;20072;-62
2024/01/14 12:04:15;;;;;;;22.50;12.00;;;4.80;90.20;;;;;;5034678;28;20392;-61
2024/01/14 12:06:43;;;;;;;18.70;10.68;;;4.80;90.20;;;;;;5068548;28;20112;-61
2024/01/14 12:09:09;;;;;;;19.52;11.13;;;4.90;90.20;;;;;;5034130;28;20032;-62
2024/01/14 12:11:36;;;;;;;21.35;12.05;;;5.00;90.10;;;;;;5036657;28;20063;-61
2024/01/14 12:14:03;;;;;;;21.92;13.02;;;5.00;90.00;;;;;;5028189;28;20512;-61
2024/01/14 12:16:30;;;;;;;28.98;12.35;;;5.00;90.00;;;;;;5069580;28;20072;-62
2024/01/14 12:18:56;;;;;;;18.98;11.48;;;4.90;90.10;;;;;;5037254;28;20083;-62
2024/01/14 12:21:23;;;;;;;26.70;11.55;;;5.00;90.10;;;;;;5029765;28;20022;-62
2024/01/14 12:23:49;;;;;;;24.20;11.98;;;5.00;90.00;;;;;;5032056;28;20384;-61
2024/01/14 12:26:15;;;;;;;24.80;11.85;;;4.90;90.00;;;;;;5034638;28;20554;-62
2024/01/14 12:28:41;;;;;;;26.90;12.40;;;4.90;90.00;;;;;;5031703;28;20312;-62
2024/01/14 12:31:07;;;;;;;16.38;11.10;;;4.90;90.10;;;;;;5034821;28;20117;-62
2024/01/14 12:33:33;;;;;;;27.45;12.68;;;4.90;90.10;;;;;;5030432;28;20033;-62
2024/01/14 12:35:59;;;;;;;19.83;10.27;;;4.90;90.10;;;;;;5030600;28;20038;-62